Weather History for EGVA - October, 2013

Change the Weather History Date:

Saturday, October 19, 2013

  Actual Average Record
Temperature  
Mean Temperature 59 °F -  
Max Temperature 65 °F 57 °F 65 °F (2013)
Min Temperature 54 °F 46 °F 32 °F (2007)
Degree Days  
Heating Degree Days 6    
Growing Degree Days 9 (Base 50)    
Moisture  
Dew Point 59 °F    
Average Humidity 99    
Maximum Humidity 100    
Minimum Humidity 85    
Precipitation  
Precipitation 0.11 in - - ()
Sea Level Pressure  
Sea Level Pressure 29.63 in    
Wind  
Wind Speed 8 mph ()    
Max Wind Speed 18 mph    
Max Gust Speed 25 mph    
Visibility 6.2 miles    
Events Rain , Thunderstorm    
Averages and records for this station are not official NWS values.
T = Trace of Precipitation, MM = Missing Value Source: Averaged Metar Reports

Daily Weather History Graph

Daily Weather History Graph

Search for Another Location

Airport or City:

Trip Planner

Search our weather history database for the weather conditions in past years. The results will help you decide how hot, cold, wet, or windy it might be!

Date:

Astronomy

Oct. 19, 2013 Rise Set
Actual Time 7:38 AM BST 6:04 PM BST
Civil Twilight 7:04 AM BST 6:38 PM BST
Nautical Twilight 6:25 AM BST 7:17 PM BST
Astronomical Twilight 5:46 AM BST 7:56 PM BST
Moon 6:15 PM BST (10/19) 8:06 AM BST (10/19)
Length of Visible Light 11h 34m
Length of Day
10h 26m
Full, 100% of the Moon is Illuminated
Oct 19
Full
Oct 27
Last Quarter
Nov 3
New
Nov 10
First Quarter
Nov 17
Full

Hourly Weather History & Observations

Time (BST) Temp. Dew Point Humidity Pressure Visibility Wind Dir Wind Speed Gust Speed Precip Events Conditions
12:28 AM 55.4 °F 55.4 °F 100% 29.71 in 6.2 mi ESE 8.1 mph - N/A Rain Light Rain
12:49 AM 55.4 °F 55.4 °F 100% 29.70 in 6.2 mi SE 8.1 mph - N/A Rain Light Rain
12:58 AM 55.4 °F 55.4 °F 100% 29.71 in 6.2 mi SE 8.1 mph - 0.05 in Rain Light Rain
1:15 AM 55.4 °F 55.4 °F 100% 29.69 in 6.2 mi ESE 9.2 mph - N/A Rain Light Rain
1:35 AM 55.4 °F 55.4 °F 100% 29.68 in 6.2 mi ESE 10.4 mph - N/A   Light Drizzle
1:36 AM 55.4 °F 55.4 °F 100% 29.68 in 6.2 mi ESE 10.4 mph - N/A   Mostly Cloudy
1:58 AM 55.2 °F 55.2 °F 100% 29.68 in 6.2 mi ESE 6.9 mph - 0.02 in   Overcast
2:12 AM 55.4 °F 55.4 °F 100% 29.67 in 6.2 mi ESE 8.1 mph - N/A   Overcast
2:58 AM 56.1 °F 56.1 °F 100% 29.67 in 6.2 mi SSE 5.8 mph - N/A   Overcast
3:30 AM 57.2 °F 57.2 °F 100% 29.65 in 6.2 mi SSE 8.1 mph - N/A   Overcast
3:40 AM 57.2 °F 57.2 °F 100% 29.64 in 6.2 mi SSE 8.1 mph - N/A   Overcast
3:58 AM 56.7 °F 56.7 °F 100% 29.65 in 6.2 mi SE 9.2 mph - N/A   Overcast
4:58 AM 57.2 °F 57.2 °F 100% 29.63 in 6.2 mi SE 8.1 mph - N/A   Overcast
5:43 AM 57.2 °F 57.2 °F 100% 29.62 in 6.2 mi SSE 4.6 mph - N/A   Overcast
5:58 AM 57.4 °F 57.4 °F 100% 29.63 in 6.2 mi SSE 5.8 mph - N/A   Overcast
6:19 AM 57.2 °F 57.2 °F 100% 29.61 in 6.2 mi SSE 5.8 mph - N/A   Light Drizzle
6:44 AM 57.2 °F 57.2 °F 100% 29.60 in 6.2 mi SSE 10.4 mph - N/A   Overcast
6:58 AM 58.1 °F 58.1 °F 100% 29.61 in 6.2 mi SSE 10.4 mph - 0.02 in   Overcast
7:11 AM 59.0 °F 59.0 °F 100% 29.60 in 6.2 mi South 9.2 mph - N/A   Overcast
7:17 AM 59.0 °F 59.0 °F 100% 29.61 in 6.2 mi South 9.2 mph - N/A   Overcast
7:34 AM 59.0 °F 59.0 °F 100% 29.61 in 6.2 mi South 9.2 mph - N/A   Light Drizzle
7:41 AM 59.0 °F 59.0 °F 100% 29.61 in 6.2 mi South 9.2 mph - N/A   Light Drizzle
7:43 AM 59.0 °F 59.0 °F 100% 29.61 in 6.2 mi South 8.1 mph - N/A   Mostly Cloudy
7:46 AM 59.0 °F 59.0 °F 100% 29.61 in 6.2 mi South 9.2 mph - N/A   Mostly Cloudy
7:47 AM 59.0 °F 59.0 °F 100% 29.61 in 6.2 mi South 8.1 mph - N/A   Mostly Cloudy
7:52 AM 59.0 °F 59.0 °F 100% 29.62 in 6.2 mi South 8.1 mph - N/A   Mostly Cloudy
7:53 AM 59.0 °F 59.0 °F 100% 29.62 in 6.2 mi South 8.1 mph - N/A   Mostly Cloudy
7:55 AM 59.0 °F 59.0 °F 100% 29.62 in 6.2 mi South 9.2 mph - N/A   Mostly Cloudy
7:56 AM 59.0 °F 59.0 °F 100% 29.62 in 6.2 mi South 9.2 mph - N/A   Mostly Cloudy
7:58 AM 59.0 °F 59.0 °F 100% 29.63 in 6.2 mi South 8.1 mph - 0.00 in   Mostly Cloudy
8:10 AM 59.0 °F 59.0 °F 100% 29.62 in 6.2 mi South 5.8 mph - N/A   Mostly Cloudy
8:15 AM 59.0 °F 59.0 °F 100% 29.62 in 6.2 mi South 6.9 mph - N/A   Mostly Cloudy
8:16 AM 59.0 °F 59.0 °F 100% 29.62 in 6.2 mi South 6.9 mph - N/A   Mostly Cloudy
8:28 AM 59.0 °F 59.0 °F 100% 29.62 in 6.2 mi South 5.8 mph - N/A   Scattered Clouds
8:58 AM 58.8 °F 58.8 °F 100% 29.64 in 6.2 mi South 5.8 mph - N/A   Scattered Clouds
9:04 AM 59.0 °F 59.0 °F 100% 29.63 in 6.2 mi South 6.9 mph - N/A   Mostly Cloudy
9:12 AM 59.0 °F 59.0 °F 100% 29.62 in 6.2 mi South 5.8 mph - N/A   Scattered Clouds
9:42 AM 60.8 °F 60.8 °F 100% 29.63 in 6.2 mi South 8.1 mph - N/A   Mostly Cloudy
9:58 AM 60.6 °F 60.6 °F 100% 29.64 in 6.2 mi SSW 5.8 mph - N/A   Mostly Cloudy
10:06 AM 60.8 °F 60.8 °F 100% 29.63 in 6.2 mi South 9.2 mph - N/A   Mostly Cloudy
10:22 AM 60.8 °F 60.8 °F 100% 29.63 in 6.2 mi South 9.2 mph - N/A   Mostly Cloudy
10:24 AM 60.8 °F 60.8 °F 100% 29.63 in 6.2 mi South 10.4 mph - N/A   Mostly Cloudy
10:41 AM 60.8 °F 60.8 °F 100% 29.63 in 6.2 mi South 10.4 mph - N/A   Mostly Cloudy
10:42 AM 60.8 °F 60.8 °F 100% 29.63 in 6.2 mi South 11.5 mph - N/A   Scattered Clouds
10:50 AM 60.8 °F 60.8 °F 100% 29.63 in 6.2 mi South 9.2 mph - N/A   Mostly Cloudy
10:51 AM 60.8 °F 60.8 °F 100% 29.63 in 6.2 mi South 9.2 mph - N/A   Mostly Cloudy
10:58 AM 61.7 °F 61.7 °F 100% 29.64 in 6.2 mi South 9.2 mph - N/A   Mostly Cloudy
11:23 AM 62.6 °F 60.8 °F 94% 29.63 in 6.2 mi SSW 8.1 mph - N/A   Mostly Cloudy
11:24 AM 62.6 °F 60.8 °F 94% 29.63 in 6.2 mi SSW 9.2 mph - N/A   Scattered Clouds
11:26 AM 62.6 °F 62.6 °F 100% 29.63 in 6.2 mi SSW 9.2 mph - N/A   Mostly Cloudy
11:27 AM 62.6 °F 62.6 °F 100% 29.63 in 6.2 mi South 10.4 mph - N/A   Mostly Cloudy
11:28 AM 62.6 °F 62.6 °F 100% 29.63 in 6.2 mi South 11.5 mph - N/A   Mostly Cloudy
11:31 AM 62.6 °F 62.6 °F 100% 29.63 in 6.2 mi SSW 10.4 mph - N/A   Scattered Clouds
11:33 AM 62.6 °F 62.6 °F 100% 29.63 in 6.2 mi SSW 13.8 mph 20.7 mph N/A   Mostly Cloudy
11:37 AM 62.6 °F 62.6 °F 100% 29.63 in 6.2 mi South 10.4 mph 20.7 mph N/A   Scattered Clouds
11:38 AM 62.6 °F 62.6 °F 100% 29.63 in 6.2 mi South 10.4 mph 20.7 mph N/A   Mostly Cloudy
11:39 AM 62.6 °F 62.6 °F 100% 29.63 in 6.2 mi SSW 10.4 mph 20.7 mph N/A   Scattered Clouds
11:46 AM 62.6 °F 62.6 °F 100% 29.63 in 6.2 mi SSW 11.5 mph - N/A   Mostly Cloudy
11:48 AM 62.6 °F 62.6 °F 100% 29.63 in 6.2 mi SSW 10.4 mph - N/A   Scattered Clouds
11:51 AM 62.6 °F 62.6 °F 100% 29.63 in 6.2 mi South 11.5 mph - N/A   Mostly Cloudy
11:52 AM 62.6 °F 62.6 °F 100% 29.63 in 6.2 mi South 11.5 mph - N/A   Mostly Cloudy
11:53 AM 62.6 °F 62.6 °F 100% 29.63 in 6.2 mi SSW 12.7 mph - N/A   Scattered Clouds
11:58 AM 62.2 °F 61.9 °F 99% 29.64 in 6.2 mi South 11.5 mph - N/A   Scattered Clouds
12:01 PM 62.6 °F 62.6 °F 100% 29.63 in 6.2 mi SSW 11.5 mph - N/A   Mostly Cloudy
12:15 PM 62.6 °F 62.6 °F 100% 29.63 in 6.2 mi South 12.7 mph - N/A   Scattered Clouds
12:58 PM 62.1 °F 61.9 °F 99% 29.63 in 6.2 mi South 11.5 mph - N/A   Partly Cloudy
1:58 PM 63.9 °F 62.4 °F 95% 29.61 in 6.2 mi South 13.8 mph - N/A   Partly Cloudy
2:58 PM 64.6 °F 60.3 °F 86% 29.60 in 6.2 mi SSW 18.4 mph 23.0 mph N/A   Partly Cloudy
3:58 PM 63.7 °F 59.2 °F 85% 29.60 in 6.2 mi South 15.0 mph 23.0 mph N/A   Partly Cloudy
4:28 PM 62.6 °F 59.0 °F 88% 29.59 in 6.2 mi South 17.3 mph 24.2 mph N/A Thunderstorm Thunderstorm
4:29 PM 62.6 °F 59.0 °F 88% 29.59 in 6.2 mi SSW 18.4 mph 24.2 mph N/A Thunderstorm Thunderstorm
4:31 PM 62.6 °F 59.0 °F 88% 29.59 in 6.2 mi SW 18.4 mph 25.3 mph N/A Thunderstorm Thunderstorm
4:36 PM 60.8 °F 59.0 °F 94% 29.61 in 5.6 mi WSW 11.5 mph 25.3 mph N/A Thunderstorm Mostly Cloudy
4:37 PM 60.8 °F 59.0 °F 94% 29.61 in 5.6 mi SW 10.4 mph 25.3 mph N/A Rain , Thunderstorm Thunderstorms and Rain
4:43 PM 57.2 °F 55.4 °F 94% 29.60 in 6.2 mi WSW 10.4 mph 23.0 mph N/A Rain Light Rain
4:48 PM 57.2 °F 55.4 °F 94% 29.60 in 6.2 mi SW 8.1 mph - N/A Rain Light Rain
4:53 PM 57.2 °F 55.4 °F 94% 29.60 in 6.2 mi WSW 6.9 mph - N/A   Scattered Clouds
4:58 PM 57.0 °F 56.3 °F 97% 29.62 in 6.2 mi WSW 6.9 mph - 0.02 in   Scattered Clouds
5:58 PM 55.8 °F 55.4 °F 99% 29.62 in 6.2 mi SSW 5.8 mph - N/A   Partly Cloudy
6:58 PM 56.5 °F 56.1 °F 99% 29.64 in 6.2 mi South 10.4 mph - N/A   Clear
7:58 PM 55.8 °F 55.6 °F 99% 29.66 in 6.2 mi South 10.4 mph - N/A   Clear
8:58 PM 55.0 °F 54.9 °F 99% 29.67 in 6.2 mi South 6.9 mph - N/A   Clear
9:58 PM 54.3 °F 54.3 °F 100% 29.67 in 6.2 mi South 5.8 mph - N/A   Clear
10:58 PM 54.1 °F 54.1 °F 100% 29.67 in 6.2 mi SE 5.8 mph - N/A   Clear
11:58 PM 55.4 °F 55.4 °F 100% 29.65 in 6.2 mi SSE 9.2 mph - N/A   Partly Cloudy